Time;durP1;ratioP1;P1;durP2;ratioP2;P2;SDS_P1;SDS_P2;PMS_P1;PMS_P2;Temp;Humidity;BMP_temperature;BMP_pressure;BME280_temperature;BME280_humidity;BME280_pressure;Samples;Min_cycle;Max_cycle;Signal;HPM_P1;HPM_P2
2023/01/13 00:01:29;;;;;;;;;;;6.90;99.90;;;;;;5068365;28;19931;-72
2023/01/13 00:03:58;;;;;;;;;;;6.80;99.90;;;;;;5070987;28;19963;-72
2023/01/13 00:06:26;;;;;;;;;;;6.90;99.90;;;;;;5082937;28;19931;-72
2023/01/13 00:08:54;;;;;;;;;;;6.90;99.90;;;;;;5070147;28;20377;-72
2023/01/13 00:11:24;;;;;;;;;;;6.90;99.90;;;;;;5083584;28;19924;-73
2023/01/13 00:13:53;;;;;;;;;;;7.00;99.90;;;;;;5070423;28;19950;-73
2023/01/13 00:16:23;;;;;;;;;;;6.90;99.90;;;;;;5085015;28;19924;-73
2023/01/13 00:18:51;;;;;;;;;;;6.90;99.90;;;;;;5065924;28;19928;-71
2023/01/13 00:21:22;;;;;;;;;;;6.90;99.90;;;;;;5081175;28;19924;-72
2023/01/13 00:23:52;;;;;;;;;;;6.90;99.90;;;;;;5086311;28;19928;-73
2023/01/13 00:26:23;;;;;;;;;;;7.00;99.90;;;;;;5085902;28;19924;-71
2023/01/13 00:28:55;;;;;;;;;;;7.00;99.90;;;;;;5068616;28;19928;-73
2023/01/13 00:31:23;;;;;;;;;;;7.00;99.90;;;;;;5083064;28;19924;-72
2023/01/13 00:33:54;;;;;;;;;;;7.00;99.90;;;;;;5086683;28;19928;-72
2023/01/13 00:36:22;;;;;;;;;;;7.10;99.90;;;;;;5066512;28;20023;-71
2023/01/13 00:38:50;;;;;;;;;;;7.10;99.90;;;;;;5062399;28;19933;-72
2023/01/13 00:41:21;;;;;;;;;;;7.10;99.90;;;;;;5081275;28;19928;-71
2023/01/13 00:43:49;;;;;;;;;;;7.10;99.90;;;;;;5081779;28;19925;-73
2023/01/13 00:46:18;;;;;;;;;;;7.10;99.90;;;;;;5070042;28;19935;-72
2023/01/13 00:48:45;;;;;;;;;;;7.20;99.90;;;;;;5085193;28;20055;-73
2023/01/13 00:51:15;;;;;;;;;;;7.10;99.90;;;;;;5067624;28;20317;-73
2023/01/13 00:53:44;;;;;;;;;;;7.10;99.90;;;;;;5081746;28;19931;-72
2023/01/13 00:56:14;;;;;;;;;;;7.10;99.90;;;;;;5069879;28;19924;-73
2023/01/13 00:58:43;;;;;;;;;;;7.10;99.90;;;;;;5068635;28;19924;-73
2023/01/13 01:01:14;;;;;;;;;;;7.10;99.90;;;;;;5065614;28;19958;-72
2023/01/13 01:03:42;;;;;;;;;;;7.20;99.90;;;;;;5083445;28;19924;-72
2023/01/13 01:06:15;;;;;;;;;;;7.20;99.90;;;;;;5085776;28;19985;-72
2023/01/13 01:08:44;;;;;;;;;;;7.20;99.90;;;;;;5085562;27;19925;-73
2023/01/13 01:11:14;;;;;;;;;;;7.20;99.90;;;;;;5084366;28;20987;-69
2023/01/13 01:13:43;;;;;;;;;;;7.20;99.90;;;;;;5074331;28;19924;-73
2023/01/13 01:16:12;;;;;;;;;;;7.20;99.90;;;;;;5066034;28;19928;-72
2023/01/13 01:18:44;;;;;;;;;;;7.20;99.90;;;;;;5085165;28;19924;-73
2023/01/13 01:21:12;;;;;;;;;;;7.20;99.90;;;;;;5066772;28;19936;-72
2023/01/13 01:23:43;;;;;;;;;;;7.30;99.90;;;;;;5098605;28;19925;-73
2023/01/13 01:26:13;;;;;;;;;;;7.30;99.90;;;;;;5053734;28;19928;-72
2023/01/13 01:28:41;;;;;;;;;;;7.30;99.90;;;;;;5087474;28;19925;-73
2023/01/13 01:31:12;;;;;;;;;;;7.30;99.90;;;;;;5070497;28;20022;-72
2023/01/13 01:33:41;;;;;;;;;;;7.30;99.90;;;;;;5089122;28;19924;-73
2023/01/13 01:36:11;;;;;;;;;;;7.30;99.90;;;;;;5087792;28;19928;-73
2023/01/13 01:38:40;;;;;;;;;;;7.30;99.90;;;;;;5089200;28;19971;-72
2023/01/13 01:41:18;;;;;;;;;;;7.30;99.90;;;;;;5069835;28;19932;-73
2023/01/13 01:43:58;;;;;;;;;;;7.30;99.90;;;;;;5089806;28;19924;-72
2023/01/13 01:46:27;;;;;;;;;;;7.40;99.90;;;;;;5085952;28;19948;-73
2023/01/13 01:48:58;;;;;;;;;;;7.40;99.90;;;;;;5086911;28;19924;-72
2023/01/13 01:51:29;;;;;;;;;;;7.50;99.90;;;;;;5070216;28;19924;-70
2023/01/13 01:54:01;;;;;;;;;;;7.50;99.90;;;;;;5087510;28;19932;-73
2023/01/13 01:56:31;;;;;;;;;;;7.50;99.90;;;;;;5085652;28;19924;-72
2023/01/13 01:59:00;;;;;;;;;;;7.50;99.90;;;;;;5089493;28;19971;-70
2023/01/13 02:01:29;;;;;;;;;;;7.50;99.90;;;;;;5067834;28;19932;-72
2023/01/13 02:04:00;;;;;;;;;;;7.60;99.90;;;;;;5072446;28;19928;-73
2023/01/13 02:06:29;;;;;;;;;;;7.60;99.90;;;;;;5083498;28;19928;-71
2023/01/13 02:08:59;;;;;;;;;;;7.50;99.90;;;;;;5056391;28;19927;-73
2023/01/13 02:14:18;;;;;;;;;;;7.50;99.90;;;;;;5088370;28;19924;-72
2023/01/13 02:17:13;;;;;;;;;;;7.60;99.90;;;;;;5085628;28;19924;-73
2023/01/13 02:20:16;;;;;;;;;;;7.60;99.90;;;;;;5039672;28;19956;-73
2023/01/13 02:22:44;;;;;;;;;;;7.60;99.90;;;;;;5036925;28;19929;-73
2023/01/13 02:25:12;;;;;;;;;;;7.70;99.90;;;;;;5061768;28;20025;-73
2023/01/13 02:27:49;;;;;;;;;;;7.70;99.90;;;;;;5066195;28;19924;-73
2023/01/13 02:33:58;;;;;;;;;;;7.70;99.90;;;;;;5087425;28;19928;-73
2023/01/13 02:36:29;;;;;;;;;;;7.70;99.90;;;;;;5039683;28;19924;-73
2023/01/13 02:39:04;;;;;;;;;;;7.70;99.90;;;;;;5091426;28;20498;-71
2023/01/13 02:44:24;;;;;;;;;;;7.70;99.90;;;;;;5089291;28;19928;-70
2023/01/13 02:47:03;;;;;;;;;;;7.70;99.90;;;;;;5070879;28;19935;-72
2023/01/13 02:49:34;;;;;;;;;;;7.70;99.90;;;;;;5071849;28;19981;-71
2023/01/13 02:52:14;;;;;;;;;;;7.70;99.90;;;;;;5084195;28;19925;-73
2023/01/13 02:54:44;;;;;;;;;;;7.80;99.90;;;;;;5072385;28;19928;-73
2023/01/13 02:57:14;;;;;;;;;;;7.80;99.90;;;;;;5085832;28;19928;-73
2023/01/13 02:59:43;;;;;;;;;;;7.80;99.90;;;;;;5086747;28;20003;-73
2023/01/13 03:02:13;;;;;;;;;;;7.80;99.90;;;;;;5067042;28;20013;-72
2023/01/13 03:04:45;;;;;;;;;;;7.80;99.90;;;;;;5078334;28;19935;-73
2023/01/13 03:07:17;;;;;;;;;;;7.80;99.90;;;;;;5071455;28;19931;-72
2023/01/13 03:09:54;;;;;;;;;;;7.90;99.90;;;;;;5083986;28;19978;-73
2023/01/13 03:12:53;;;;;;;;;;;7.90;99.90;;;;;;5083308;28;20017;-73
2023/01/13 03:15:40;;;;;;;;;;;7.90;99.90;;;;;;5052469;28;19935;-72
2023/01/13 03:18:20;;;;;;;;;;;7.90;99.90;;;;;;5084874;28;20651;-73
2023/01/13 03:21:14;;;;;;;;;;;7.90;99.90;;;;;;5067128;28;19939;-72
2023/01/13 03:24:08;;;;;;;;;;;7.90;99.90;;;;;;5077804;28;19924;-72
2023/01/13 03:26:43;;;;;;;;;;;7.90;99.90;;;;;;5069954;28;19928;-72
2023/01/13 03:29:20;;;;;;;;;;;7.90;99.90;;;;;;5089838;28;19924;-72
2023/01/13 03:32:00;;;;;;;;;;;7.90;99.90;;;;;;5066744;28;19939;-72
2023/01/13 03:34:37;;;;;;;;;;;7.90;99.90;;;;;;5068968;28;19924;-71
2023/01/13 03:37:07;;;;;;;;;;;7.90;99.90;;;;;;5068666;28;20023;-72
2023/01/13 03:39:36;;;;;;;;;;;7.80;99.90;;;;;;5078071;28;19924;-72
2023/01/13 03:42:07;;;;;;;;;;;7.90;99.90;;;;;;5084818;28;20392;-71
2023/01/13 03:44:39;;;;;;;;;;;7.90;99.90;;;;;;5070887;28;19928;-72
2023/01/13 03:47:11;;;;;;;;;;;7.90;99.90;;;;;;5087987;28;19933;-72
2023/01/13 03:49:48;;;;;;;;;;;7.90;99.90;;;;;;5065715;28;20296;-72
2023/01/13 03:52:43;;;;;;;;;;;7.90;99.90;;;;;;5084882;28;19924;-71
2023/01/13 03:55:17;;;;;;;;;;;7.90;99.90;;;;;;5085018;28;19928;-72
2023/01/13 03:57:48;;;;;;;;;;;7.90;99.90;;;;;;5069730;28;19978;-72
2023/01/13 04:00:17;;;;;;;;;;;7.90;99.90;;;;;;5068672;28;19930;-72
2023/01/13 04:02:55;;;;;;;;;;;8.00;99.90;;;;;;5082764;28;20392;-71
2023/01/13 04:05:24;;;;;;;;;;;8.00;99.90;;;;;;5084910;28;19989;-72
2023/01/13 04:07:58;;;;;;;;;;;8.00;99.90;;;;;;5051548;28;20031;-71
2023/01/13 04:10:28;;;;;;;;;;;8.00;99.90;;;;;;5084425;28;19931;-71
2023/01/13 04:13:01;;;;;;;;;;;8.00;99.90;;;;;;5075588;28;19989;-72
2023/01/13 04:15:31;;;;;;;;;;;8.10;99.90;;;;;;5084214;28;20012;-72
2023/01/13 04:18:10;;;;;;;;;;;8.10;99.90;;;;;;5081491;28;20378;-72
2023/01/13 04:20:39;;;;;;;;;;;8.10;99.90;;;;;;5083595;28;19982;-72
2023/01/13 04:23:08;;;;;;;;;;;8.10;99.90;;;;;;5086470;28;19928;-72
2023/01/13 04:25:37;;;;;;;;;;;8.10;99.90;;;;;;5086706;28;19934;-72
2023/01/13 04:28:06;;;;;;;;;;;8.10;99.90;;;;;;5068332;28;20019;-72
2023/01/13 04:30:36;;;;;;;;;;;8.10;99.90;;;;;;5087716;28;19936;-72
2023/01/13 04:33:07;;;;;;;;;;;8.20;99.90;;;;;;5086630;28;19924;-72
2023/01/13 04:35:36;;;;;;;;;;;8.20;99.90;;;;;;5087590;28;20378;-72
2023/01/13 04:38:09;;;;;;;;;;;8.20;99.90;;;;;;5070408;28;19986;-72
2023/01/13 04:40:37;;;;;;;;;;;8.20;99.90;;;;;;5085755;28;19932;-72
2023/01/13 04:43:07;;;;;;;;;;;8.20;99.90;;;;;;5081652;28;20018;-72
2023/01/13 04:45:35;;;;;;;;;;;8.30;99.90;;;;;;5070054;28;20019;-72
2023/01/13 04:48:03;;;;;;;;;;;8.20;99.90;;;;;;5069533;28;19960;-72
2023/01/13 04:50:32;;;;;;;;;;;8.20;99.90;;;;;;5070610;28;19932;-72
2023/01/13 04:53:02;;;;;;;;;;;8.20;99.90;;;;;;5069307;28;20306;-72
2023/01/13 04:55:30;;;;;;;;;;;8.20;99.90;;;;;;5071301;28;20400;-72
2023/01/13 04:58:02;;;;;;;;;;;8.30;99.90;;;;;;5070708;28;19974;-72
2023/01/13 05:00:31;;;;;;;;;;;8.30;99.90;;;;;;5069156;28;19924;-72
2023/01/13 05:03:00;;;;;;;;;;;8.30;99.90;;;;;;5054254;28;19924;-72
2023/01/13 05:05:29;;;;;;;;;;;8.30;99.90;;;;;;5074275;28;19931;-73
2023/01/13 05:07:58;;;;;;;;;;;8.30;99.90;;;;;;5091061;28;19924;-73
2023/01/13 05:10:27;;;;;;;;;;;8.30;99.90;;;;;;5090563;28;20026;-72
2023/01/13 05:16:59;;;;;;;;;;;8.40;99.90;;;;;;5076779;28;19978;-72
2023/01/13 05:18:51;;;;;;;;;;;8.40;99.90;;;;;;5080768;28;19925;-73
2023/01/13 05:27:00;;;;;;;;;;;8.40;99.90;;;;;;5094342;27;19924;-72
2023/01/13 05:29:39;;;;;;;;;;;8.40;99.90;;;;;;5072193;28;19928;-72
2023/01/13 05:32:09;;;;;;;;;;;8.30;99.90;;;;;;5074273;28;19924;-72
2023/01/13 05:34:39;;;;;;;;;;;8.30;99.90;;;;;;5089541;28;19932;-72
2023/01/13 05:37:09;;;;;;;;;;;8.40;99.90;;;;;;5099082;28;19935;-73
2023/01/13 05:43:19;;;;;;;;;;;8.30;99.90;;;;;;5087038;28;19935;-72
2023/01/13 05:45:58;;;;;;;;;;;8.30;99.90;;;;;;5087102;28;19924;-72
2023/01/13 05:48:29;;;;;;;;;;;8.20;99.90;;;;;;5088078;28;19928;-72
2023/01/13 05:51:01;;;;;;;;;;;8.30;99.90;;;;;;5085372;28;19935;-72
2023/01/13 05:53:31;;;;;;;;;;;8.20;99.90;;;;;;5086109;28;20423;-73
2023/01/13 05:55:59;;;;;;;;;;;8.20;99.90;;;;;;5085506;28;19935;-72
2023/01/13 05:58:27;;;;;;;;;;;8.20;99.90;;;;;;5087409;28;20416;-72
2023/01/13 06:01:00;;;;;;;;;;;8.30;99.90;;;;;;5083799;28;20328;-72
2023/01/13 06:03:32;;;;;;;;;;;8.30;99.90;;;;;;5072029;28;19927;-72
2023/01/13 06:06:02;;;;;;;;;;;8.30;99.90;;;;;;5068504;28;19931;-72
2023/01/13 06:08:31;;;;;;;;;;;8.20;99.90;;;;;;5070822;28;20014;-72
2023/01/13 06:11:00;;;;;;;;;;;8.30;99.90;;;;;;5081348;28;20321;-72
2023/01/13 06:13:33;;;;;;;;;;;8.20;99.90;;;;;;5071761;28;19924;-72
2023/01/13 06:16:02;;;;;;;;;;;8.20;99.90;;;;;;5069015;28;20407;-72
2023/01/13 06:18:32;;;;;;;;;;;8.20;99.90;;;;;;5071742;28;19924;-72
2023/01/13 06:21:06;;;;;;;;;;;8.20;99.90;;;;;;5068339;28;19928;-72
2023/01/13 06:23:44;;;;;;;;;;;8.20;99.90;;;;;;5071003;28;19985;-72
2023/01/13 06:26:19;;;;;;;;;;;8.20;99.90;;;;;;5070298;28;20387;-72
2023/01/13 06:28:49;;;;;;;;;;;8.10;99.90;;;;;;5086873;28;19954;-73
2023/01/13 06:31:18;;;;;;;;;;;8.10;99.90;;;;;;5083861;28;20026;-74
2023/01/13 06:33:50;;;;;;;;;;;8.20;99.90;;;;;;5063488;28;20382;-73
2023/01/13 06:36:21;;;;;;;;;;;8.20;99.90;;;;;;5072324;28;19928;-72
2023/01/13 06:38:53;;;;;;;;;;;8.20;99.90;;;;;;5087026;28;20315;-73
2023/01/13 06:44:12;;;;;;;;;;;8.30;99.90;;;;;;5088291;28;19928;-73
2023/01/13 06:46:41;;;;;;;;;;;8.30;99.90;;;;;;5070213;28;20358;-72
2023/01/13 06:49:11;;;;;;;;;;;8.30;99.90;;;;;;5086211;28;20383;-71
2023/01/13 06:51:40;;;;;;;;;;;8.30;99.90;;;;;;5066511;28;19939;-71
2023/01/13 06:54:09;;;;;;;;;;;8.30;99.90;;;;;;5069180;28;19932;-71
2023/01/13 06:56:39;;;;;;;;;;;8.30;99.90;;;;;;5069745;28;19932;-72
2023/01/13 06:59:10;;;;;;;;;;;8.30;99.90;;;;;;5067166;28;19932;-71
2023/01/13 07:01:41;;;;;;;;;;;8.30;99.90;;;;;;5081869;28;19991;-71
2023/01/13 07:04:12;;;;;;;;;;;8.30;99.90;;;;;;5088415;27;19974;-72
2023/01/13 07:06:41;;;;;;;;;;;8.30;99.90;;;;;;5085337;28;20298;-71
2023/01/13 07:09:08;;;;;;;;;;;8.30;99.90;;;;;;5087488;28;19935;-71
2023/01/13 07:11:37;;;;;;;;;;;8.20;99.90;;;;;;5083934;28;20382;-71
2023/01/13 07:16:55;;;;;;;;;;;8.20;99.90;;;;;;5071680;28;19947;-72
2023/01/13 07:19:23;;;;;;;;;;;8.20;99.90;;;;;;5054167;28;19930;-72
2023/01/13 07:21:51;;;;;;;;;;;8.10;99.90;;;;;;5068432;28;19931;-72
2023/01/13 07:24:23;;;;;;;;;;;8.10;99.90;;;;;;5074456;28;20383;-72
2023/01/13 07:26:51;;;;;;;;;;;8.10;99.90;;;;;;5087624;28;19924;-72
2023/01/13 07:29:20;;;;;;;;;;;8.10;99.90;;;;;;5071973;28;20428;-72
2023/01/13 07:31:48;;;;;;;;;;;8.10;99.90;;;;;;5086931;28;20582;-72
2023/01/13 07:34:17;;;;;;;;;;;8.10;99.90;;;;;;5071185;28;19931;-72
2023/01/13 07:36:46;;;;;;;;;;;8.10;99.90;;;;;;5086084;28;20003;-72
2023/01/13 07:39:17;;;;;;;;;;;8.10;99.90;;;;;;5087367;28;20476;-72
2023/01/13 07:44:41;;;;;;;;;;;8.10;99.90;;;;;;5083489;28;19966;-72
2023/01/13 07:47:13;;;;;;;;;;;8.10;99.90;;;;;;5101691;28;19931;-72
2023/01/13 07:49:44;;;;;;;;;;;8.10;99.90;;;;;;5085712;28;20522;-72
2023/01/13 07:52:14;;;;;;;;;;;8.10;99.90;;;;;;5069421;28;20481;-72
2023/01/13 07:54:44;;;;;;;;;;;8.10;99.90;;;;;;5068601;28;20009;-72
2023/01/13 07:57:13;;;;;;;;;;;8.10;99.90;;;;;;5085794;28;19939;-72
2023/01/13 07:59:43;;;;;;;;;;;8.10;99.90;;;;;;5086838;28;19932;-72
2023/01/13 08:02:15;;;;;;;;;;;8.20;99.90;;;;;;5063586;28;20418;-72
2023/01/13 08:04:47;;;;;;;;;;;8.20;99.90;;;;;;5083305;28;19935;-72
2023/01/13 08:07:18;;;;;;;;;;;8.20;99.90;;;;;;5078052;28;20390;-72
2023/01/13 08:09:48;;;;;;;;;;;8.20;99.90;;;;;;5083598;28;20314;-72
2023/01/13 08:15:08;;;;;;;;;;;8.30;99.90;;;;;;5086853;28;20421;-72
2023/01/13 08:17:38;;;;;;;;;;;8.30;99.90;;;;;;5084101;28;19924;-71
2023/01/13 08:20:08;;;;;;;;;;;8.30;99.90;;;;;;5086194;28;19951;-72
2023/01/13 08:22:38;;;;;;;;;;;8.30;99.90;;;;;;5085602;28;20305;-72
2023/01/13 08:25:07;;;;;;;;;;;8.30;99.90;;;;;;5070882;28;19931;-72
2023/01/13 08:27:36;;;;;;;;;;;8.30;99.90;;;;;;5069028;28;20011;-72
2023/01/13 08:30:06;;;;;;;;;;;8.40;99.90;;;;;;5069404;28;19963;-72
2023/01/13 08:32:36;;;;;;;;;;;8.40;99.90;;;;;;5065156;28;20022;-72
2023/01/13 08:35:07;;;;;;;;;;;8.40;99.90;;;;;;5075402;28;19959;-72
2023/01/13 08:37:38;;;;;;;;;;;8.50;99.90;;;;;;5098791;28;19935;-72
2023/01/13 08:40:07;;;;;;;;;;;8.40;99.90;;;;;;5087580;28;19931;-72
2023/01/13 08:42:37;;;;;;;;;;;8.50;99.90;;;;;;5065877;28;20550;-72
2023/01/13 08:45:06;;;;;;;;;;;8.50;99.90;;;;;;5070757;28;19963;-72
2023/01/13 08:47:36;;;;;;;;;;;8.50;99.90;;;;;;5086438;28;19924;-72
2023/01/13 08:50:06;;;;;;;;;;;8.40;99.90;;;;;;5054540;28;20426;-72
2023/01/13 08:52:35;;;;;;;;;;;8.50;99.90;;;;;;5065336;28;19924;-72
2023/01/13 08:55:05;;;;;;;;;;;8.50;99.90;;;;;;5086535;28;19932;-72
2023/01/13 08:57:34;;;;;;;;;;;8.50;99.90;;;;;;5086784;28;20044;-72
2023/01/13 09:00:22;;;;;;;;;;;8.60;99.90;;;;;;5089865;28;19931;-72
2023/01/13 09:02:52;;;;;;;;;;;8.60;99.90;;;;;;5069120;28;19924;-72
2023/01/13 09:05:25;;;;;;;;;;;8.60;99.90;;;;;;5086805;28;19963;-72
2023/01/13 09:08:32;;;;;;;;;;;8.60;99.90;;;;;;5084877;28;19947;-72
2023/01/13 09:14:00;;;;;;;;;;;8.60;99.90;;;;;;5086011;28;19932;-72
2023/01/13 09:16:30;;;;;;;;;;;8.60;99.90;;;;;;5070712;28;19928;-72
2023/01/13 09:18:59;;;;;;;;;;;8.60;99.90;;;;;;5070668;28;19928;-72
2023/01/13 09:21:30;;;;;;;;;;;8.60;99.90;;;;;;5082291;28;19958;-72
2023/01/13 09:23:59;;;;;;;;;;;8.60;99.90;;;;;;5086240;28;19928;-72
2023/01/13 09:26:31;;;;;;;;;;;8.70;99.90;;;;;;5069956;28;20015;-72
2023/01/13 09:29:01;;;;;;;;;;;8.70;99.90;;;;;;5088934;28;19935;-73
2023/01/13 09:31:33;;;;;;;;;;;8.80;99.90;;;;;;5080217;28;19942;-72
2023/01/13 09:37:01;;;;;;;;;;;8.90;99.90;;;;;;5063654;28;19924;-72
2023/01/13 09:39:31;;;;;;;;;;;8.90;99.90;;;;;;5076569;28;19935;-72
2023/01/13 09:44:54;;;;;;;;;;;9.00;99.90;;;;;;5081585;28;19932;-72
2023/01/13 09:47:36;;;;;;;;;;;9.10;99.90;;;;;;5082983;28;19940;-73
2023/01/13 09:50:12;;;;;;;;;;;9.20;99.90;;;;;;5071347;28;20011;-72
2023/01/13 09:52:42;;;;;;;;;;;9.20;99.90;;;;;;5086135;28;20022;-72
2023/01/13 09:55:25;;;;;;;;;;;9.30;99.90;;;;;;5071222;28;19932;-73
2023/01/13 09:57:56;;;;;;;;;;;9.40;99.90;;;;;;5086639;28;20625;-72
2023/01/13 10:00:34;;;;;;;;;;;9.50;99.90;;;;;;5086355;28;20558;-72
2023/01/13 10:03:14;;;;;;;;;;;9.50;99.90;;;;;;5102335;28;20453;-72
2023/01/13 10:06:11;;;;;;;;;;;9.40;99.90;;;;;;5066569;28;19924;-72
2023/01/13 10:09:06;;;;;;;;;;;9.30;99.90;;;;;;5070312;28;19925;-72
2023/01/13 10:14:49;;;;;;;;;;;9.30;99.90;;;;;;5102266;28;19928;-73
2023/01/13 10:17:34;;;;;;;;;;;9.40;99.90;;;;;;5071888;28;19924;-72
2023/01/13 10:20:16;;;;;;;;;;;9.40;99.90;;;;;;5085591;28;19943;-72
2023/01/13 10:23:00;;;;;;;;;;;9.50;99.90;;;;;;5083526;28;19924;-72
2023/01/13 10:25:29;;;;;;;;;;;9.40;99.90;;;;;;5087792;28;19967;-72
2023/01/13 10:28:09;;;;;;;;;;;9.40;99.90;;;;;;5073339;28;19951;-73
2023/01/13 10:30:46;;;;;;;;;;;9.30;99.90;;;;;;5086638;28;20397;-74
2023/01/13 10:33:29;;;;;;;;;;;9.30;99.90;;;;;;5069355;28;19934;-73
2023/01/13 10:36:00;;;;;;;;;;;9.30;99.90;;;;;;5072455;28;19928;-73
2023/01/13 10:38:40;;;;;;;;;;;9.30;99.90;;;;;;5085303;28;20451;-72
2023/01/13 10:41:12;;;;;;;;;;;9.30;99.90;;;;;;5083249;28;20063;-72
2023/01/13 10:43:56;;;;;;;;;;;9.30;99.90;;;;;;5083815;28;19939;-72
2023/01/13 10:46:28;;;;;;;;;;;9.30;99.90;;;;;;5088047;28;19924;-72
2023/01/13 10:48:58;;;;;;;;;;;9.40;99.90;;;;;;5069062;28;19931;-72
2023/01/13 10:51:44;;;;;;;;;;;9.40;99.90;;;;;;5085038;28;19999;-72
2023/01/13 10:54:23;;;;;;;;;;;9.40;99.90;;;;;;5068967;28;19924;-72
2023/01/13 10:57:19;;;;;;;;;;;9.40;99.90;;;;;;5085365;28;19934;-72
2023/01/13 11:00:26;;;;;;;;;;;9.50;99.90;;;;;;5068315;28;19928;-72
2023/01/13 11:03:23;;;;;;;;;;;9.50;99.90;;;;;;5086566;28;20014;-73
2023/01/13 11:05:59;;;;;;;;;;;9.50;99.90;;;;;;5085525;28;20023;-73
2023/01/13 11:08:31;;;;;;;;;;;9.50;99.90;;;;;;5083565;28;19932;-73
2023/01/13 11:11:06;;;;;;;;;;;9.50;99.90;;;;;;5087081;28;19924;-72
2023/01/13 11:16:31;;;;;;;;;;;9.40;99.90;;;;;;5096337;28;19928;-72
2023/01/13 11:19:11;;;;;;;;;;;9.40;99.90;;;;;;5063391;27;19939;-73
2023/01/13 11:21:49;;;;;;;;;;;9.40;99.90;;;;;;5094745;27;20356;-72
2023/01/13 11:24:28;;;;;;;;;;;9.30;99.90;;;;;;5082178;28;19924;-72
2023/01/13 11:27:04;;;;;;;;;;;9.30;99.90;;;;;;5098662;28;19928;-72
2023/01/13 11:29:41;;;;;;;;;;;9.30;99.90;;;;;;5095763;28;19932;-73
2023/01/13 11:32:16;;;;;;;;;;;9.40;99.90;;;;;;5045857;27;19924;-72
2023/01/13 11:34:47;;;;;;;;;;;9.50;99.90;;;;;;5123525;28;19931;-72
2023/01/13 11:37:24;;;;;;;;;;;9.60;99.90;;;;;;5112746;28;20321;-72
2023/01/13 11:40:05;;;;;;;;;;;9.60;99.90;;;;;;5099466;27;20007;-72
2023/01/13 11:42:52;;;;;;;;;;;9.70;99.90;;;;;;5083695;28;19924;-72
2023/01/13 11:45:26;;;;;;;;;;;9.80;99.90;;;;;;5087383;28;19934;-72
2023/01/13 11:47:57;;;;;;;;;;;9.90;99.90;;;;;;5108694;28;20023;-72
2023/01/13 11:50:44;;;;;;;;;;;10.00;99.90;;;;;;5088153;28;20032;-73
2023/01/13 11:53:26;;;;;;;;;;;10.00;99.90;;;;;;5100046;28;19931;-73
2023/01/13 11:56:06;;;;;;;;;;;10.00;99.90;;;;;;5103184;28;19931;-72
2023/01/13 11:58:44;;;;;;;;;;;10.00;99.90;;;;;;5091354;28;19977;-72
2023/01/13 12:01:37;;;;;;;;;;;10.00;99.90;;;;;;5081966;27;19932;-73
2023/01/13 12:04:09;;;;;;;;;;;10.00;99.90;;;;;;5084693;28;20051;-72
2023/01/13 12:06:40;;;;;;;;;;;10.00;99.90;;;;;;5088988;28;19938;-72
2023/01/13 12:09:28;;;;;;;;;;;9.90;99.90;;;;;;5084675;28;19930;-72
2023/01/13 12:12:19;;;;;;;;;;;9.90;99.90;;;;;;5101135;28;20444;-72
2023/01/13 12:14:48;;;;;;;;;;;9.90;99.90;;;;;;5097071;28;19970;-72
2023/01/13 12:17:25;;;;;;;;;;;9.90;99.90;;;;;;5101727;28;19924;-72
2023/01/13 12:19:54;;;;;;;;;;;9.90;99.90;;;;;;5100545;28;19931;-72
2023/01/13 12:22:31;;;;;;;;;;;9.90;99.90;;;;;;5083810;28;19928;-71
2023/01/13 12:28:18;;;;;;;;;;;10.00;99.90;;;;;;5100883;28;19930;-72
2023/01/13 12:30:52;;;;;;;;;;;10.00;99.90;;;;;;5100697;28;19932;-72
2023/01/13 12:33:27;;;;;;;;;;;10.00;99.90;;;;;;5105665;28;22097;-72
2023/01/13 12:36:20;;;;;;;;;;;9.90;99.90;;;;;;5106515;28;19982;-72
2023/01/13 12:38:55;;;;;;;;;;;9.80;99.90;;;;;;5054713;28;19959;-72
2023/01/13 12:44:15;;;;;;;;;;;9.80;99.90;;;;;;5091716;27;19932;-72
2023/01/13 12:44:29;;;;;;;;;;;9.80;99.90;;;;;;5114776;27;20034;-72
2023/01/13 12:46:58;;;;;;;;;;;9.80;99.90;;;;;;5092682;28;19923;-72
2023/01/13 12:49:31;;;;;;;;;;;9.70;99.90;;;;;;5086865;28;19950;-72
2023/01/13 12:52:02;;;;;;;;;;;9.70;99.90;;;;;;5103066;28;19977;-72
2023/01/13 12:54:29;;;;;;;;;;;9.70;99.90;;;;;;5088229;28;20432;-72
2023/01/13 12:56:59;;;;;;;;;;;9.70;99.90;;;;;;5104468;28;19936;-72
2023/01/13 12:59:27;;;;;;;;;;;9.70;99.90;;;;;;5101663;28;19924;-73
2023/01/13 13:02:09;;;;;;;;;;;9.70;99.90;;;;;;5103274;28;19992;-72
2023/01/13 13:04:50;;;;;;;;;;;9.60;99.90;;;;;;5085931;28;19924;-72
2023/01/13 13:07:34;;;;;;;;;;;9.60;99.90;;;;;;5080788;28;20305;-72
2023/01/13 13:10:06;;;;;;;;;;;9.30;99.90;;;;;;5097726;28;19928;-72
2023/01/13 13:15:33;;;;;;;;;;;7.60;99.90;;;;;;5103503;28;20361;-73
2023/01/13 13:18:07;;;;;;;;;;;6.90;99.90;;;;;;5104043;28;19947;-73
2023/01/13 13:20:55;;;;;;;;;;;6.40;99.90;;;;;;5087068;28;20054;-72
2023/01/13 13:23:32;;;;;;;;;;;6.00;99.90;;;;;;5092055;28;19924;-72
2023/01/13 13:26:21;;;;;;;;;;;5.70;99.90;;;;;;5089369;28;19939;-72
2023/01/13 13:29:08;;;;;;;;;;;5.50;99.90;;;;;;5087109;28;19984;-73
2023/01/13 13:31:52;;;;;;;;;;;5.40;99.90;;;;;;5088040;28;19928;-73
2023/01/13 13:34:27;;;;;;;;;;;5.30;99.90;;;;;;5112097;27;20014;-73
2023/01/13 13:37:15;;;;;;;;;;;5.30;99.90;;;;;;5093428;28;19928;-72
2023/01/13 13:48:38;;;;;;;;;;;5.30;99.90;;;;;;5105481;27;19969;-73
2023/01/13 13:51:24;;;;;;;;;;;5.30;99.90;;;;;;5091778;27;19939;-73
2023/01/13 13:54:05;;;;;;;;;;;5.30;99.90;;;;;;5109729;27;20398;-73
2023/01/13 13:56:42;;;;;;;;;;;5.20;99.90;;;;;;5105820;27;19928;-73
2023/01/13 13:59:15;;;;;;;;;;;5.30;99.90;;;;;;5079748;28;19935;-73
2023/01/13 14:01:49;;;;;;;;;;;5.30;99.90;;;;;;5109760;28;19923;-72
2023/01/13 14:04:24;;;;;;;;;;;5.30;99.90;;;;;;5091274;27;19958;-73
2023/01/13 14:06:58;;;;;;;;;;;5.40;99.90;;;;;;5094557;27;19927;-73
2023/01/13 14:09:38;;;;;;;;;;;5.40;99.90;;;;;;5107013;27;20009;-73
2023/01/13 14:12:15;;;;;;;;;;;5.50;99.90;;;;;;5088959;28;19985;-73
2023/01/13 14:14:44;;;;;;;;;;;5.40;99.90;;;;;;5077356;28;19931;-73
2023/01/13 14:17:27;;;;;;;;;;;5.50;99.90;;;;;;5090245;27;19934;-72
2023/01/13 14:19:59;;;;;;;;;;;5.60;99.90;;;;;;5087945;28;19939;-73
2023/01/13 14:22:29;;;;;;;;;;;5.70;99.90;;;;;;5108345;28;20006;-73
2023/01/13 14:25:00;;;;;;;;;;;5.70;99.90;;;;;;5120237;27;19924;-73
2023/01/13 14:27:29;;;;;;;;;;;5.80;99.90;;;;;;5096597;28;20431;-73
2023/01/13 14:29:59;;;;;;;;;;;5.90;99.90;;;;;;5094691;27;19924;-73
2023/01/13 14:32:32;;;;;;;;;;;6.00;99.90;;;;;;5121310;27;19928;-72
2023/01/13 14:35:07;;;;;;;;;;;6.00;99.90;;;;;;5127987;27;19971;-73
2023/01/13 14:37:37;;;;;;;;;;;6.10;99.90;;;;;;5097183;28;19924;-72
2023/01/13 14:40:26;;;;;;;;;;;6.10;99.90;;;;;;5103351;27;19927;-72
2023/01/13 14:42:58;;;;;;;;;;;6.10;99.90;;;;;;5105670;27;20394;-72
2023/01/13 14:45:29;;;;;;;;;;;6.10;99.90;;;;;;5096726;28;19940;-72
2023/01/13 14:47:57;;;;;;;;;;;6.10;99.90;;;;;;5104710;27;19924;-72
2023/01/13 14:50:30;;;;;;;;;;;6.10;99.90;;;;;;5107155;27;19993;-72
2023/01/13 14:52:59;;;;;;;;;;;6.20;99.90;;;;;;5109862;27;19973;-72
2023/01/13 14:55:39;;;;;;;;;;;6.10;99.90;;;;;;5103307;27;20399;-72
2023/01/13 14:58:22;;;;;;;;;;;6.10;99.90;;;;;;5099537;27;19924;-72
2023/01/13 15:00:50;;;;;;;;;;;6.10;99.90;;;;;;5087762;28;19932;-73
2023/01/13 15:03:19;;;;;;;;;;;6.10;99.90;;;;;;5090118;27;19924;-72
2023/01/13 15:05:52;;;;;;;;;;;6.10;99.90;;;;;;5087041;28;19984;-72
2023/01/13 15:08:28;;;;;;;;;;;6.10;99.90;;;;;;5103052;27;19950;-72
2023/01/13 15:11:01;;;;;;;;;;;6.00;99.90;;;;;;5101556;28;19978;-73
2023/01/13 15:13:34;;;;;;;;;;;6.00;99.90;;;;;;5089443;27;20018;-72
2023/01/13 15:16:05;;;;;;;;;;;6.00;99.90;;;;;;5106930;27;19924;-73
2023/01/13 15:18:38;;;;;;;;;;;6.00;99.90;;;;;;5077289;27;19935;-72
2023/01/13 15:21:08;;;;;;;;;;;5.90;99.90;;;;;;5082766;28;19932;-72
2023/01/13 15:23:38;;;;;;;;;;;5.90;99.90;;;;;;5106482;28;19963;-72
2023/01/13 15:26:20;;;;;;;;;;;5.90;99.90;;;;;;5105594;28;20021;-73
2023/01/13 15:28:50;;;;;;;;;;;5.90;99.90;;;;;;5106109;28;19907;-74
2023/01/13 15:31:19;;;;;;;;;;;5.90;99.90;;;;;;5097531;28;20109;-73
2023/01/13 15:33:54;;;;;;;;;;;5.80;99.90;;;;;;5104221;27;19934;-74
2023/01/13 15:36:36;;;;;;;;;;;5.80;99.90;;;;;;5091065;28;19927;-73
2023/01/13 15:39:07;;;;;;;;;;;5.70;99.90;;;;;;5090664;28;20618;-73
2023/01/13 15:47:12;;;;;;;;;;;5.60;99.90;;;;;;5088974;28;19955;-74
2023/01/13 15:49:48;;;;;;;;;;;5.60;99.90;;;;;;5100075;28;19924;-73
2023/01/13 15:52:21;;;;;;;;;;;5.50;99.90;;;;;;5090371;28;19931;-74
2023/01/13 15:54:50;;;;;;;;;;;5.50;99.90;;;;;;5100202;28;19927;-74
2023/01/13 15:57:25;;;;;;;;;;;5.50;99.90;;;;;;5112273;27;19924;-70
2023/01/13 15:59:57;;;;;;;;;;;5.40;99.90;;;;;;5104912;28;20542;-73
2023/01/13 16:02:28;;;;;;;;;;;5.50;99.90;;;;;;5083372;28;19938;-72
2023/01/13 16:04:57;;;;;;;;;;;5.60;99.90;;;;;;5090424;28;19924;-73
2023/01/13 16:07:26;;;;;;;;;;;5.60;99.90;;;;;;5086781;28;19931;-72
2023/01/13 16:09:55;;;;;;;;;;;5.50;99.90;;;;;;5102081;28;19931;-74
2023/01/13 16:12:25;;;;;;;;;;;5.50;99.90;;;;;;5101194;28;20012;-72
2023/01/13 16:14:54;;;;;;;;;;;5.50;99.90;;;;;;5090709;28;19927;-71